createdAt,value
2022-09-25T00:00:59.255Z,15.00
2022-09-25T00:03:31.895Z,15.00
2022-09-25T00:06:10.158Z,15.10
2022-09-25T00:08:40.870Z,15.00
2022-09-25T00:11:12.199Z,15.00
2022-09-25T00:13:43.650Z,15.00
2022-09-25T00:16:15.598Z,15.00
2022-09-25T00:18:58.456Z,15.00
2022-09-25T00:21:32.145Z,15.00
2022-09-25T00:24:03.967Z,15.00
2022-09-25T00:26:37.005Z,15.00
2022-09-25T00:29:08.521Z,15.00
2022-09-25T00:31:39.252Z,14.90
2022-09-25T00:34:09.761Z,14.90
2022-09-25T00:36:45.269Z,15.00
2022-09-25T00:39:15.582Z,15.00
2022-09-25T00:41:45.944Z,14.90
2022-09-25T00:44:46.172Z,14.90
2022-09-25T00:47:18.769Z,14.90
2022-09-25T00:49:50.466Z,14.90
2022-09-25T00:52:23.685Z,14.90
2022-09-25T00:54:57.129Z,14.90
2022-09-25T00:57:30.572Z,14.90
2022-09-25T01:00:06.901Z,15.00
2022-09-25T01:02:41.067Z,14.90
2022-09-25T01:05:17.638Z,14.80
2022-09-25T01:07:52.931Z,14.90
2022-09-25T01:10:24.474Z,14.90
2022-09-25T01:12:56.038Z,14.80
2022-09-25T01:15:33.060Z,14.80
2022-09-25T01:18:10.357Z,14.80
2022-09-25T01:20:58.469Z,14.80
2022-09-25T01:23:48.357Z,14.80
2022-09-25T01:26:39.896Z,14.80
2022-09-25T01:29:16.540Z,14.80
2022-09-25T01:31:54.339Z,14.70
2022-09-25T01:34:29.412Z,14.70
2022-09-25T01:37:05.915Z,14.70
2022-09-25T01:39:41.598Z,14.70
2022-09-25T01:42:18.483Z,14.70
2022-09-25T01:44:57.938Z,14.70
2022-09-25T01:47:31.738Z,14.70
2022-09-25T01:50:04.660Z,14.70
2022-09-25T01:52:40.817Z,14.70
2022-09-25T01:55:15.893Z,14.70
2022-09-25T01:57:52.476Z,14.70
2022-09-25T02:00:27.260Z,14.60
2022-09-25T02:03:01.339Z,14.60
2022-09-25T02:05:34.842Z,14.50
2022-09-25T02:08:08.950Z,14.50
2022-09-25T02:10:45.292Z,14.50
2022-09-25T02:13:17.903Z,14.40
2022-09-25T02:15:54.628Z,14.50
2022-09-25T02:18:40.324Z,14.50
2022-09-25T02:21:19.914Z,14.50
2022-09-25T02:23:56.127Z,14.50
2022-09-25T02:26:30.975Z,14.40
2022-09-25T02:29:02.619Z,14.30
2022-09-25T02:31:39.157Z,14.30
2022-09-25T02:34:14.705Z,14.30
2022-09-25T02:36:46.025Z,14.30
2022-09-25T02:39:19.897Z,14.20
2022-09-25T02:42:04.442Z,14.30
2022-09-25T02:44:42.372Z,14.30
2022-09-25T02:47:26.209Z,14.30
2022-09-25T02:50:05.777Z,14.30
2022-09-25T02:52:40.930Z,14.20
2022-09-25T02:55:18.385Z,14.30
2022-09-25T02:57:54.725Z,14.20
2022-09-25T03:00:25.560Z,14.30
2022-09-25T03:03:02.277Z,14.20
2022-09-25T03:05:34.039Z,14.20
2022-09-25T03:08:17.073Z,14.20
2022-09-25T03:10:47.663Z,14.10
2022-09-25T03:13:19.566Z,14.10
2022-09-25T03:15:54.304Z,14.10
2022-09-25T03:18:27.375Z,14.00
2022-09-25T03:20:57.966Z,14.10
2022-09-25T03:23:28.987Z,14.00
2022-09-25T03:25:59.239Z,14.00
2022-09-25T03:28:29.805Z,13.90
2022-09-25T03:31:02.058Z,13.90
2022-09-25T03:33:38.715Z,13.90
2022-09-25T03:36:13.199Z,13.90
2022-09-25T03:38:46.001Z,13.90
2022-09-25T03:41:20.350Z,13.80
2022-09-25T03:43:52.544Z,13.80
2022-09-25T03:46:24.925Z,13.80
2022-09-25T03:48:58.599Z,13.70
2022-09-25T03:51:30.896Z,13.70
2022-09-25T03:54:01.701Z,13.70
2022-09-25T03:56:32.836Z,13.70
2022-09-25T03:59:03.451Z,13.70
2022-09-25T04:01:34.809Z,13.60
2022-09-25T04:04:08.007Z,13.60
2022-09-25T04:06:38.286Z,13.60
2022-09-25T04:09:08.744Z,13.60
2022-09-25T04:11:39.085Z,13.60
2022-09-25T04:14:09.671Z,13.60
2022-09-25T04:16:39.952Z,13.50
2022-09-25T04:19:13.693Z,13.50
2022-09-25T04:21:43.943Z,13.50
2022-09-25T04:24:26.630Z,13.50
2022-09-25T04:26:56.980Z,13.50
2022-09-25T04:29:28.059Z,13.50
2022-09-25T04:32:10.614Z,13.50
2022-09-25T04:34:43.522Z,13.40
2022-09-25T04:37:14.312Z,13.40
2022-09-25T04:39:44.635Z,13.30
2022-09-25T04:42:14.939Z,13.40
2022-09-25T04:44:45.529Z,13.40
2022-09-25T04:47:16.445Z,13.30
2022-09-25T04:49:49.512Z,13.30
2022-09-25T04:52:21.289Z,13.30
2022-09-25T04:54:52.022Z,13.30
2022-09-25T04:57:53.407Z,13.30
2022-09-25T05:00:19.654Z,13.30
2022-09-25T05:02:50.312Z,13.30
2022-09-25T05:05:28.338Z,13.20
2022-09-25T05:08:00.031Z,13.20
2022-09-25T05:10:32.107Z,13.20
2022-09-25T05:13:04.045Z,13.20
2022-09-25T05:15:36.391Z,13.20
2022-09-25T05:18:08.422Z,13.20
2022-09-25T05:20:41.739Z,13.10
2022-09-25T05:23:12.422Z,13.10
2022-09-25T05:25:42.746Z,13.00
2022-09-25T05:28:13.712Z,13.00
2022-09-25T05:30:44.171Z,13.00
2022-09-25T05:33:14.675Z,13.00
2022-09-25T05:35:48.616Z,13.00
2022-09-25T05:38:19.017Z,12.90
2022-09-25T05:40:49.283Z,13.00
2022-09-25T05:43:19.591Z,12.90
2022-09-25T05:45:57.004Z,13.00
2022-09-25T05:48:27.371Z,12.90
2022-09-25T05:51:01.079Z,12.90
2022-09-25T05:53:31.432Z,12.90
2022-09-25T05:56:03.678Z,12.90
2022-09-25T05:58:35.470Z,12.80
2022-09-25T06:01:07.739Z,12.90
2022-09-25T06:03:37.970Z,12.80
2022-09-25T06:06:11.015Z,12.80
2022-09-25T06:08:41.295Z,12.80
2022-09-25T06:11:11.636Z,12.80
2022-09-25T06:13:44.618Z,12.80
2022-09-25T06:16:19.568Z,12.80
2022-09-25T06:18:51.305Z,12.80
2022-09-25T06:21:24.490Z,12.70
2022-09-25T06:23:55.458Z,12.70
2022-09-25T06:26:26.061Z,12.70
2022-09-25T06:29:00.961Z,12.70
2022-09-25T06:31:33.565Z,12.70
2022-09-25T06:34:04.571Z,12.80
2022-09-25T06:36:37.632Z,12.80
2022-09-25T06:39:08.782Z,12.80
2022-09-25T06:41:40.350Z,12.80
2022-09-25T06:44:10.960Z,12.80
2022-09-25T06:46:45.414Z,12.80
2022-09-25T06:49:16.489Z,12.80
2022-09-25T06:51:51.190Z,12.90
2022-09-25T06:54:21.580Z,12.90
2022-09-25T06:56:52.751Z,12.90
2022-09-25T06:59:23.118Z,12.90
2022-09-25T07:01:53.585Z,12.90
2022-09-25T07:04:21.662Z,12.80
2022-09-25T07:06:56.764Z,12.90
2022-09-25T07:09:27.056Z,13.00
2022-09-25T07:11:57.480Z,13.00
2022-09-25T07:14:28.056Z,13.00
2022-09-25T07:16:58.447Z,13.10
2022-09-25T07:19:28.767Z,13.10
2022-09-25T07:22:02.147Z,13.10
2022-09-25T07:24:33.316Z,13.30
2022-09-25T07:27:03.646Z,13.20
2022-09-25T07:29:35.663Z,13.20
2022-09-25T07:32:06.347Z,13.20
2022-09-25T07:34:38.215Z,13.20
2022-09-25T07:37:11.133Z,13.30
2022-09-25T07:39:41.473Z,13.40
2022-09-25T07:42:11.712Z,13.30
2022-09-25T07:44:46.012Z,13.40
2022-09-25T07:47:19.796Z,13.30
2022-09-25T07:49:50.108Z,13.40
2022-09-25T07:52:23.040Z,13.40
2022-09-25T07:54:53.374Z,13.40
2022-09-25T07:57:23.683Z,13.40
2022-09-25T07:59:54.032Z,13.40
2022-09-25T08:02:24.411Z,13.50
2022-09-25T08:04:54.785Z,13.50
2022-09-25T08:07:27.643Z,13.60
2022-09-25T08:09:57.933Z,13.50
2022-09-25T08:12:28.568Z,13.60
2022-09-25T08:14:58.877Z,13.60
2022-09-25T08:17:31.795Z,13.70
2022-09-25T08:20:13.377Z,13.70
2022-09-25T08:22:43.703Z,13.70
2022-09-25T08:25:13.958Z,13.70
2022-09-25T08:27:44.481Z,13.70
2022-09-25T08:30:16.064Z,13.80
2022-09-25T08:32:46.402Z,13.80
2022-09-25T08:35:19.573Z,13.90
2022-09-25T08:37:49.962Z,13.90
2022-09-25T08:40:27.467Z,13.90
2022-09-25T08:42:59.831Z,13.90
2022-09-25T08:45:47.931Z,14.00
2022-09-25T08:48:36.971Z,14.00
2022-09-25T08:51:12.031Z,14.10
2022-09-25T08:53:43.776Z,14.10
2022-09-25T08:56:18.817Z,14.10
2022-09-25T08:58:54.341Z,14.20
2022-09-25T09:01:27.438Z,14.30
2022-09-25T09:04:05.779Z,14.30
2022-09-25T09:06:43.722Z,14.30
2022-09-25T09:09:20.055Z,14.40
2022-09-25T09:11:56.349Z,14.40
2022-09-25T09:14:31.240Z,14.40
2022-09-25T09:17:06.208Z,14.50
2022-09-25T09:19:38.465Z,14.60
2022-09-25T09:22:13.856Z,14.70
2022-09-25T09:24:57.896Z,14.70
2022-09-25T09:27:49.490Z,14.70
2022-09-25T09:30:24.122Z,14.80
2022-09-25T09:33:14.718Z,14.90
2022-09-25T09:35:53.143Z,14.90
2022-09-25T09:38:33.598Z,14.90
2022-09-25T09:41:13.424Z,15.10
2022-09-25T09:44:04.317Z,15.10
2022-09-25T09:46:44.969Z,15.20
2022-09-25T09:49:20.670Z,15.30
2022-09-25T09:51:57.286Z,15.20
2022-09-25T09:54:38.573Z,15.30
2022-09-25T09:57:17.238Z,15.50
2022-09-25T10:02:35.662Z,15.50
2022-09-25T10:05:11.304Z,15.60
2022-09-25T10:07:45.401Z,15.70
2022-09-25T10:10:19.874Z,15.80
2022-09-25T10:12:53.369Z,15.80
2022-09-25T10:15:35.984Z,15.70
2022-09-25T10:18:07.682Z,15.90
2022-09-25T10:20:44.800Z,16.10
2022-09-25T10:23:30.772Z,15.90
2022-09-25T10:26:04.175Z,16.00
2022-09-25T10:28:37.231Z,16.10
2022-09-25T10:31:10.947Z,16.40
2022-09-25T10:33:41.611Z,16.40
2022-09-25T10:36:11.999Z,16.30
2022-09-25T10:38:51.353Z,16.20
2022-09-25T10:41:45.928Z,16.10
2022-09-25T10:44:25.662Z,16.10
2022-09-25T10:47:08.370Z,16.10
2022-09-25T10:50:03.432Z,16.00
2022-09-25T10:52:50.689Z,16.10
2022-09-25T10:55:33.403Z,16.10
2022-09-25T10:58:13.975Z,16.40
2022-09-25T11:00:55.229Z,16.40
2022-09-25T11:03:29.548Z,16.50
2022-09-25T11:06:02.680Z,16.70
2022-09-25T11:08:38.084Z,16.60
2022-09-25T11:11:10.722Z,16.60
2022-09-25T11:13:50.063Z,16.80
2022-09-25T11:16:20.577Z,17.00
2022-09-25T11:18:54.236Z,16.80
2022-09-25T11:21:30.394Z,16.70
2022-09-25T11:24:17.995Z,16.60
2022-09-25T11:26:52.785Z,16.40
2022-09-25T11:29:36.178Z,16.40
2022-09-25T11:32:14.769Z,16.40
2022-09-25T11:35:01.502Z,16.40
2022-09-25T11:37:40.584Z,16.40
2022-09-25T11:40:41.601Z,16.30
2022-09-25T11:43:15.664Z,16.30
2022-09-25T11:45:54.514Z,16.30
2022-09-25T11:54:38.122Z,16.40
2022-09-25T11:57:15.212Z,16.40
2022-09-25T12:00:05.540Z,16.80
2022-09-25T12:02:52.590Z,17.10
2022-09-25T12:05:51.630Z,17.30
2022-09-25T12:08:36.086Z,17.40
2022-09-25T12:11:14.571Z,17.20
2022-09-25T12:13:54.607Z,17.20
2022-09-25T12:16:31.412Z,17.10
2022-09-25T12:19:16.761Z,17.10
2022-09-25T12:21:54.232Z,17.00
2022-09-25T12:24:35.721Z,17.00
2022-09-25T12:27:17.729Z,17.00
2022-09-25T12:30:08.634Z,17.00
2022-09-25T12:33:03.128Z,17.10
2022-09-25T12:35:45.514Z,17.10
2022-09-25T12:38:26.888Z,17.10
2022-09-25T12:41:01.481Z,17.20
2022-09-25T12:43:36.832Z,17.10
2022-09-25T12:46:16.017Z,17.10
2022-09-25T12:48:53.120Z,17.10
2022-09-25T12:51:35.081Z,17.00
2022-09-25T12:54:09.773Z,17.10
2022-09-25T12:56:49.645Z,17.00
2022-09-25T12:59:25.116Z,17.10
2022-09-25T13:02:05.391Z,17.20
2022-09-25T13:04:52.252Z,17.30
2022-09-25T13:07:30.409Z,17.30
2022-09-25T13:10:00.924Z,17.60
2022-09-25T13:12:36.709Z,17.40
2022-09-25T13:15:10.684Z,17.40
2022-09-25T13:17:41.902Z,17.50
2022-09-25T13:21:01.202Z,17.60
2022-09-25T13:23:40.741Z,17.90
2022-09-25T13:26:17.766Z,17.60
2022-09-25T13:28:54.128Z,17.60
2022-09-25T13:31:29.893Z,17.50
2022-09-25T13:34:07.819Z,17.60
2022-09-25T13:36:44.746Z,17.70
2022-09-25T13:39:41.287Z,17.90
2022-09-25T13:42:18.017Z,17.70
2022-09-25T13:44:54.343Z,17.80
2022-09-25T13:47:46.557Z,18.10
2022-09-25T13:50:40.634Z,18.00
2022-09-25T13:53:26.468Z,17.90
2022-09-25T13:56:29.994Z,17.90
2022-09-25T13:59:22.569Z,18.10
2022-09-25T14:01:59.096Z,18.20
2022-09-25T14:04:39.574Z,18.20
2022-09-25T14:07:16.891Z,18.20
2022-09-25T14:09:51.020Z,18.20
2022-09-25T14:12:30.450Z,18.00
2022-09-25T14:15:06.228Z,18.10
2022-09-25T14:17:39.033Z,18.10
2022-09-25T14:20:36.496Z,18.10
2022-09-25T14:23:13.884Z,18.10
2022-09-25T14:25:47.134Z,18.10
2022-09-25T14:28:26.744Z,18.10
2022-09-25T14:31:17.781Z,18.00
2022-09-25T14:34:12.529Z,17.90
2022-09-25T14:36:53.922Z,17.90
2022-09-25T14:39:40.820Z,17.80
2022-09-25T14:42:43.424Z,17.80
2022-09-25T14:45:48.622Z,17.80
2022-09-25T14:48:22.618Z,17.80
2022-09-25T14:50:55.989Z,17.80
2022-09-25T14:53:30.510Z,17.70
2022-09-25T14:56:02.371Z,17.70
2022-09-25T14:58:36.803Z,17.70
2022-09-25T15:01:18.065Z,17.70
2022-09-25T15:03:51.999Z,17.70
2022-09-25T15:06:31.829Z,17.70
2022-09-25T15:09:04.609Z,17.70
2022-09-25T15:11:43.565Z,17.70
2022-09-25T15:14:14.768Z,17.60
2022-09-25T15:17:04.427Z,17.60
2022-09-25T15:19:40.362Z,17.50
2022-09-25T15:22:19.441Z,17.50
2022-09-25T15:24:53.685Z,17.60
2022-09-25T15:27:27.160Z,17.60
2022-09-25T15:30:00.372Z,17.60
2022-09-25T15:32:39.906Z,17.60
2022-09-25T15:35:19.655Z,17.60
2022-09-25T15:37:50.523Z,17.60
2022-09-25T15:40:30.904Z,17.50
2022-09-25T15:43:02.928Z,17.60
2022-09-25T15:45:46.532Z,17.60
2022-09-25T15:48:26.299Z,17.60
2022-09-25T15:50:57.448Z,17.60
2022-09-25T15:53:31.135Z,17.60
2022-09-25T15:56:08.322Z,17.60
2022-09-25T15:58:49.276Z,17.60
2022-09-25T16:01:36.369Z,17.60
2022-09-25T16:04:23.044Z,17.60
2022-09-25T16:06:53.743Z,17.60
2022-09-25T16:09:30.919Z,17.60
2022-09-25T16:12:23.554Z,17.60
2022-09-25T16:14:55.315Z,17.60
2022-09-25T16:17:28.951Z,17.60
2022-09-25T16:20:08.768Z,17.70
2022-09-25T16:22:48.709Z,17.60
2022-09-25T16:25:26.033Z,17.60
2022-09-25T16:28:05.039Z,17.60
2022-09-25T16:30:36.108Z,17.60
2022-09-25T16:33:11.192Z,17.60
2022-09-25T16:36:10.220Z,17.50
2022-09-25T16:38:38.678Z,17.60
2022-09-25T16:41:20.108Z,17.60
2022-09-25T16:44:05.040Z,17.50
2022-09-25T16:46:35.638Z,17.50
2022-09-25T16:49:06.084Z,17.50
2022-09-25T16:51:46.186Z,17.50
2022-09-25T16:54:18.103Z,17.50
2022-09-25T16:56:50.009Z,17.40
2022-09-25T16:59:22.463Z,17.40
2022-09-25T17:01:55.919Z,17.30
2022-09-25T17:04:29.046Z,17.30
2022-09-25T17:07:02.130Z,17.20
2022-09-25T17:09:32.643Z,17.20
2022-09-25T17:12:07.646Z,17.10
2022-09-25T17:14:38.921Z,17.10
2022-09-25T17:17:09.377Z,17.10
2022-09-25T17:19:39.982Z,17.00
2022-09-25T17:22:13.515Z,17.00
2022-09-25T17:24:43.954Z,17.00
2022-09-25T17:27:19.221Z,16.90
2022-09-25T17:29:50.075Z,16.90
2022-09-25T17:32:20.345Z,16.90
2022-09-25T17:34:50.825Z,16.80
2022-09-25T17:37:23.679Z,16.80
2022-09-25T17:39:54.099Z,16.80
2022-09-25T17:42:26.833Z,16.80
2022-09-25T17:44:57.804Z,16.80
2022-09-25T17:47:28.473Z,16.70
2022-09-25T17:49:59.445Z,16.70
2022-09-25T17:52:32.444Z,16.70
2022-09-25T17:55:03.009Z,16.70
2022-09-25T17:57:33.595Z,16.70
2022-09-25T18:00:04.374Z,16.70
2022-09-25T18:02:35.072Z,16.60
2022-09-25T18:05:05.580Z,16.60
2022-09-25T18:07:40.102Z,16.60
2022-09-25T18:10:11.755Z,16.50
2022-09-25T18:12:42.245Z,16.50
2022-09-25T18:15:15.504Z,16.50
2022-09-25T18:17:45.821Z,16.50
2022-09-25T18:20:29.360Z,16.50
2022-09-25T18:23:02.204Z,16.40
2022-09-25T18:25:34.149Z,16.40
2022-09-25T18:28:05.261Z,16.40
2022-09-25T18:30:38.276Z,16.30
2022-09-25T18:33:08.544Z,16.30
2022-09-25T18:35:40.439Z,16.30
2022-09-25T18:38:13.323Z,16.30
2022-09-25T18:40:43.766Z,16.30
2022-09-25T18:43:14.715Z,16.30
2022-09-25T18:45:52.062Z,16.30
2022-09-25T18:48:22.568Z,16.30
2022-09-25T18:50:53.648Z,16.20
2022-09-25T18:53:26.612Z,16.20
2022-09-25T18:55:58.373Z,16.20
2022-09-25T18:58:31.388Z,16.10
2022-09-25T19:01:03.732Z,16.10
2022-09-25T19:03:38.446Z,16.10
2022-09-25T19:06:11.031Z,16.10
2022-09-25T19:08:45.042Z,16.10
2022-09-25T19:11:16.278Z,16.10
2022-09-25T19:13:46.597Z,16.10
2022-09-25T19:16:17.597Z,16.00
2022-09-25T19:18:50.408Z,16.00
2022-09-25T19:21:24.398Z,16.00
2022-09-25T19:23:58.178Z,16.00
2022-09-25T19:26:28.854Z,16.00
2022-09-25T19:28:59.124Z,15.90
2022-09-25T19:31:31.523Z,15.90
2022-09-25T19:34:03.005Z,15.90
2022-09-25T19:36:35.785Z,15.90
2022-09-25T19:39:08.773Z,15.90
2022-09-25T19:41:41.260Z,15.80
2022-09-25T19:44:15.167Z,15.80
2022-09-25T19:46:46.103Z,15.80
2022-09-25T19:49:18.023Z,15.80
2022-09-25T19:51:48.402Z,15.80
2022-09-25T19:54:21.389Z,15.70
2022-09-25T19:56:51.656Z,15.70
2022-09-25T19:59:22.158Z,15.70
2022-09-25T20:01:53.618Z,15.70
2022-09-25T20:04:24.015Z,15.70
2022-09-25T20:06:55.631Z,15.70
2022-09-25T20:09:28.784Z,15.60
2022-09-25T20:11:59.150Z,15.60
2022-09-25T20:14:29.674Z,15.70
2022-09-25T20:17:00.399Z,15.60
2022-09-25T20:19:30.635Z,15.60
2022-09-25T20:22:00.948Z,15.60
2022-09-25T20:24:33.927Z,15.60
2022-09-25T20:27:04.195Z,15.50
2022-09-25T20:29:34.626Z,15.50
2022-09-25T20:32:05.009Z,15.50
2022-09-25T20:34:35.253Z,15.50
2022-09-25T20:37:05.698Z,15.50
2022-09-25T20:39:38.664Z,15.50
2022-09-25T20:42:09.556Z,15.50
2022-09-25T20:44:39.938Z,15.40
2022-09-25T20:47:10.260Z,15.50
2022-09-25T20:49:40.591Z,15.50
2022-09-25T20:52:12.650Z,15.40
2022-09-25T20:54:45.557Z,15.40
2022-09-25T20:57:15.884Z,15.40
2022-09-25T20:59:46.238Z,15.40
2022-09-25T21:02:16.809Z,15.40
2022-09-25T21:04:47.607Z,15.30
2022-09-25T21:07:17.849Z,15.30
2022-09-25T21:09:50.750Z,15.30
2022-09-25T21:12:21.549Z,15.30
2022-09-25T21:14:52.676Z,15.30
2022-09-25T21:17:23.104Z,15.20
2022-09-25T21:19:54.622Z,15.20
2022-09-25T21:22:25.017Z,15.20
2022-09-25T21:24:57.975Z,15.20
2022-09-25T21:27:28.268Z,15.20
2022-09-25T21:29:58.533Z,15.20
2022-09-25T21:32:28.834Z,15.10
2022-09-25T21:34:59.091Z,15.10
2022-09-25T21:37:29.518Z,15.10
2022-09-25T21:40:03.662Z,15.10
2022-09-25T21:42:35.807Z,15.00
2022-09-25T21:45:07.976Z,15.10
2022-09-25T21:47:38.354Z,15.00
2022-09-25T21:50:10.006Z,15.00
2022-09-25T21:52:42.985Z,15.00
2022-09-25T21:55:16.149Z,14.90
2022-09-25T21:57:46.576Z,14.80
2022-09-25T22:00:20.219Z,14.80
2022-09-25T22:02:50.883Z,14.80
2022-09-25T22:05:22.452Z,14.80
2022-09-25T22:07:52.703Z,14.80
2022-09-25T22:10:25.586Z,14.80
2022-09-25T22:12:57.960Z,14.70
2022-09-25T22:15:28.563Z,14.70
2022-09-25T22:17:58.946Z,14.70
2022-09-25T22:20:29.238Z,14.70
2022-09-25T22:22:59.592Z,14.70
2022-09-25T22:25:32.545Z,14.70
2022-09-25T22:28:02.850Z,14.60
2022-09-25T22:30:33.157Z,14.70
2022-09-25T22:33:03.526Z,14.70
2022-09-25T22:35:33.892Z,14.60
2022-09-25T22:38:04.209Z,14.50
2022-09-25T22:40:39.562Z,14.60
2022-09-25T22:43:10.469Z,14.60
2022-09-25T22:45:40.836Z,14.50
2022-09-25T22:48:11.680Z,14.50
2022-09-25T22:50:42.166Z,14.60
2022-09-25T22:53:12.500Z,14.40
2022-09-25T22:55:45.394Z,14.50
2022-09-25T22:58:15.719Z,14.40
2022-09-25T23:00:47.366Z,14.40
2022-09-25T23:03:18.278Z,14.40
2022-09-25T23:05:49.133Z,14.30
2022-09-25T23:08:19.540Z,14.40
2022-09-25T23:11:06.730Z,14.30
2022-09-25T23:13:39.289Z,14.30
2022-09-25T23:16:10.918Z,14.30
2022-09-25T23:18:41.544Z,14.40
2022-09-25T23:21:11.926Z,14.30
2022-09-25T23:23:42.325Z,14.30
2022-09-25T23:26:15.252Z,14.30
2022-09-25T23:28:45.578Z,14.30
2022-09-25T23:31:18.634Z,14.40
2022-09-25T23:33:50.054Z,14.40
2022-09-25T23:36:21.791Z,14.30
2022-09-25T23:38:53.400Z,14.30
2022-09-25T23:41:27.753Z,14.30
2022-09-25T23:43:58.902Z,14.30
2022-09-25T23:46:32.613Z,14.40
2022-09-25T23:49:03.424Z,14.30
2022-09-25T23:51:34.770Z,14.30
2022-09-25T23:54:05.418Z,14.30
2022-09-25T23:56:39.046Z,14.30
2022-09-25T23:59:09.356Z,14.40
